Time;durP1;ratioP1;P1;durP2;ratioP2;P2;SDS_P1;SDS_P2;PMS_P1;PMS_P2;Temp;Humidity;BMP_temperature;BMP_pressure;BME280_temperature;BME280_humidity;BME280_pressure;Samples;Min_cycle;Max_cycle;Signal;HPM_P1;HPM_P2
2023/01/11 00:00:22;;;;;;;5.82;2.80;;;;;;;;;;5005520;28;20034;-79
2023/01/11 00:02:53;;;;;;;5.30;2.70;;;;;;;;;;5007728;28;20049;-80
2023/01/11 00:05:18;;;;;;;4.45;2.65;;;;;;;;;;5005485;28;20030;-79
2023/01/11 00:07:43;;;;;;;4.85;2.55;;;;;;;;;;5009510;28;20033;-79
2023/01/11 00:10:09;;;;;;;5.50;2.40;;;;;;;;;;5007810;28;20096;-80
2023/01/11 00:12:35;;;;;;;5.75;2.53;;;;;;;;;;5008323;28;20045;-80
2023/01/11 00:15:00;;;;;;;6.32;2.53;;;;;;;;;;5006240;28;20037;-79
2023/01/11 00:17:28;;;;;;;4.22;2.50;;;;;;;;;;5006684;28;20026;-80
2023/01/11 00:19:53;;;;;;;4.78;2.60;;;;;;;;;;5002724;28;20390;-80
2023/01/11 00:22:19;;;;;;;3.92;2.40;;;;;;;;;;4994593;28;20026;-80
2023/01/11 00:24:44;;;;;;;3.70;2.25;;;;;;;;;;4995404;28;20441;-79
2023/01/11 00:27:09;;;;;;;6.43;2.63;;;;;;;;;;4999754;28;20112;-79
2023/01/11 00:29:35;;;;;;;5.88;2.50;;;;;;;;;;4999408;28;20034;-80
2023/01/11 00:32:00;;;;;;;7.03;2.13;;;;;;;;;;5004203;28;20034;-80
2023/01/11 00:34:26;;;;;;;6.22;2.30;;;;;;;;;;5012132;28;20461;-80
2023/01/11 00:36:51;;;;;;;5.30;2.35;;;;;;;;;;5004073;28;20045;-79
2023/01/11 00:39:17;;;;;;;4.97;2.28;;;;;;;;;;5003720;28;20033;-80
2023/01/11 00:49:59;;;;;;;4.60;2.20;;;;;;;;;;5005130;28;20548;-79
2023/01/11 00:52:25;;;;;;;4.13;1.90;;;;;;;;;;4997325;28;20022;-79
2023/01/11 00:54:50;;;;;;;4.47;2.03;;;;;;;;;;4994291;28;20034;-79
2023/01/11 00:57:15;;;;;;;3.53;2.17;;;;;;;;;;4994268;28;20025;-79
2023/01/11 00:59:41;;;;;;;4.03;2.30;;;;;;;;;;5005352;28;21796;-80
2023/01/11 01:02:08;;;;;;;5.45;2.65;;;;;;;;;;4996833;28;20022;-80
2023/01/11 01:04:33;;;;;;;4.97;2.00;;;;;;;;;;5000627;28;20032;-78
2023/01/11 01:06:59;;;;;;;4.43;1.98;;;;;;;;;;4998277;28;20042;-80
2023/01/11 01:09:25;;;;;;;3.88;2.30;;;;;;;;;;5017956;28;20040;-79
2023/01/11 01:11:50;;;;;;;4.22;2.20;;;;;;;;;;5003890;28;20021;-78
2023/01/11 01:14:24;;;;;;;4.95;2.10;;;;;;;;;;5000020;28;20040;-79
2023/01/11 01:16:51;;;;;;;5.43;2.40;;;;;;;;;;5001745;28;20474;-79
2023/01/11 01:19:16;;;;;;;5.18;1.83;;;;;;;;;;5002880;28;20171;-79
2023/01/11 01:21:42;;;;;;;5.28;2.13;;;;;;;;;;4995402;28;20470;-79
2023/01/11 01:24:07;;;;;;;4.38;2.13;;;;;;;;;;5018280;28;20030;-78
2023/01/11 01:26:32;;;;;;;3.80;1.85;;;;;;;;;;5008101;28;20040;-79
2023/01/11 01:28:58;;;;;;;3.63;1.92;;;;;;;;;;5003952;28;20470;-80
2023/01/11 01:31:23;;;;;;;3.72;1.73;;;;;;;;;;5001108;28;20029;-79
2023/01/11 01:33:49;;;;;;;4.72;2.00;;;;;;;;;;5009738;28;20120;-80
2023/01/11 01:36:14;;;;;;;3.58;1.77;;;;;;;;;;5004368;28;20028;-78
2023/01/11 01:38:39;;;;;;;3.30;1.83;;;;;;;;;;5004658;28;20049;-79
2023/01/11 01:41:05;;;;;;;4.00;1.83;;;;;;;;;;5000152;28;20036;-79
2023/01/11 01:43:51;;;;;;;2.95;1.65;;;;;;;;;;4999612;28;20113;-79
2023/01/11 01:46:18;;;;;;;4.13;1.70;;;;;;;;;;4993240;28;20112;-79
2023/01/11 01:48:49;;;;;;;3.50;1.77;;;;;;;;;;4993653;28;20433;-79
2023/01/11 01:51:24;;;;;;;2.50;1.60;;;;;;;;;;4990751;28;20446;-79
2023/01/11 01:53:53;;;;;;;2.50;1.45;;;;;;;;;;4993850;28;20034;-79
2023/01/11 01:56:31;;;;;;;2.72;1.58;;;;;;;;;;4992613;28;20395;-79
2023/01/11 01:59:01;;;;;;;3.10;1.45;;;;;;;;;;4997605;28;20022;-79
2023/01/11 02:04:18;;;;;;;3.03;1.50;;;;;;;;;;4996411;28;21301;-79
2023/01/11 02:06:44;;;;;;;2.92;1.70;;;;;;;;;;4995453;28;20033;-79
2023/01/11 02:09:34;;;;;;;2.45;1.60;;;;;;;;;;4994354;28;20033;-79
2023/01/11 02:12:00;;;;;;;2.25;1.45;;;;;;;;;;4992522;28;20429;-78
2023/01/11 02:14:27;;;;;;;2.30;1.55;;;;;;;;;;4991603;28;20406;-79
2023/01/11 02:16:52;;;;;;;5.00;1.63;;;;;;;;;;4991815;28;20028;-79
2023/01/11 02:19:45;;;;;;;2.53;1.60;;;;;;;;;;4994833;28;20037;-79
2023/01/11 02:22:48;;;;;;;3.78;1.73;;;;;;;;;;4997409;28;20045;-79
2023/01/11 02:25:32;;;;;;;3.55;1.48;;;;;;;;;;4996920;28;21179;-79
2023/01/11 02:28:13;;;;;;;2.97;1.50;;;;;;;;;;5007871;28;20037;-78
2023/01/11 02:30:41;;;;;;;3.25;1.50;;;;;;;;;;4998455;28;20486;-79
2023/01/11 02:33:21;;;;;;;2.53;1.50;;;;;;;;;;4996504;28;20079;-78
2023/01/11 02:36:14;;;;;;;3.25;1.52;;;;;;;;;;4993202;28;20125;-78
2023/01/11 02:39:18;;;;;;;2.78;1.50;;;;;;;;;;5011509;28;20677;-79
2023/01/11 02:45:15;;;;;;;3.40;1.70;;;;;;;;;;4993210;28;20049;-79
2023/01/11 02:47:49;;;;;;;2.83;1.45;;;;;;;;;;5000489;28;20041;-79
2023/01/11 02:50:21;;;;;;;2.42;1.50;;;;;;;;;;5002953;28;20120;-79
2023/01/11 02:52:54;;;;;;;2.60;1.60;;;;;;;;;;4998996;28;20544;-78
2023/01/11 02:55:24;;;;;;;2.97;1.63;;;;;;;;;;4997119;28;20022;-78
2023/01/11 02:57:54;;;;;;;2.83;1.58;;;;;;;;;;5001907;28;20107;-80
2023/01/11 03:00:20;;;;;;;2.97;1.52;;;;;;;;;;4999278;28;20436;-78
2023/01/11 03:02:46;;;;;;;2.97;1.60;;;;;;;;;;4999258;28;20117;-78
2023/01/11 03:05:14;;;;;;;2.80;1.48;;;;;;;;;;5004640;28;20033;-79
2023/01/11 03:07:50;;;;;;;2.58;1.50;;;;;;;;;;5001947;28;20037;-79
2023/01/11 03:10:31;;;;;;;3.28;1.70;;;;;;;;;;5005432;28;20108;-79
2023/01/11 03:13:54;;;;;;;3.17;1.60;;;;;;;;;;5004429;28;20028;-79
2023/01/11 03:16:22;;;;;;;2.88;1.50;;;;;;;;;;5004723;28;20080;-79
2023/01/11 03:19:03;;;;;;;3.40;1.38;;;;;;;;;;5006089;28;20034;-79
2023/01/11 03:21:51;;;;;;;2.25;1.27;;;;;;;;;;5008745;28;20101;-79
2023/01/11 03:24:49;;;;;;;2.70;1.40;;;;;;;;;;5004489;28;20064;-79
2023/01/11 03:27:26;;;;;;;2.58;1.55;;;;;;;;;;5007995;28;20667;-79
2023/01/11 03:30:02;;;;;;;2.97;1.77;;;;;;;;;;5011211;28;20057;-79
2023/01/11 03:33:09;;;;;;;3.90;1.75;;;;;;;;;;5004723;28;20056;-79
2023/01/11 03:35:50;;;;;;;2.65;1.58;;;;;;;;;;4945977;28;20696;-79
2023/01/11 03:38:23;;;;;;;4.10;1.65;;;;;;;;;;4948707;29;20059;-79
2023/01/11 03:41:04;;;;;;;3.33;1.50;;;;;;;;;;4984622;28;20070;-79
2023/01/11 03:43:32;;;;;;;3.25;1.60;;;;;;;;;;5006233;28;20041;-79
2023/01/11 03:46:02;;;;;;;2.45;1.58;;;;;;;;;;4998779;28;20045;-79
2023/01/11 03:48:52;;;;;;;2.20;1.48;;;;;;;;;;5001145;28;20477;-79
2023/01/11 03:51:27;;;;;;;2.83;1.67;;;;;;;;;;5002314;28;20561;-79
2023/01/11 03:53:57;;;;;;;3.03;1.70;;;;;;;;;;5007183;28;20033;-79
2023/01/11 03:56:30;;;;;;;3.40;1.85;;;;;;;;;;5005608;28;20226;-79
2023/01/11 03:58:56;;;;;;;;;;;;;;;;;;5005822;28;20049;-78
2023/01/11 04:01:22;;;;;;;3.40;1.88;;;;;;;;;;4996156;28;19926;-79
2023/01/11 04:03:48;;;;;;;4.32;2.20;;;;;;;;;;5002959;28;20497;-79
2023/01/11 04:06:14;;;;;;;4.45;2.15;;;;;;;;;;5001528;28;20052;-80
2023/01/11 04:08:39;;;;;;;3.45;2.15;;;;;;;;;;4999772;28;20130;-80
2023/01/11 04:11:04;;;;;;;3.30;2.20;;;;;;;;;;5001052;28;20028;-79
2023/01/11 04:13:31;;;;;;;2.40;1.73;;;;;;;;;;5002496;28;20096;-79
2023/01/11 04:15:56;;;;;;;3.15;2.15;;;;;;;;;;4997561;28;20030;-79
2023/01/11 04:18:21;;;;;;;3.08;2.20;;;;;;;;;;5001969;28;20036;-79
2023/01/11 04:20:47;;;;;;;3.22;2.20;;;;;;;;;;5000860;28;20026;-80
2023/01/11 04:23:13;;;;;;;3.90;2.20;;;;;;;;;;4996488;28;20042;-79
2023/01/11 04:25:39;;;;;;;2.88;1.92;;;;;;;;;;5003718;28;20100;-79
2023/01/11 04:28:04;;;;;;;3.50;1.80;;;;;;;;;;4998879;28;20151;-80
2023/01/11 04:30:30;;;;;;;3.20;2.00;;;;;;;;;;4997577;28;20088;-79
2023/01/11 04:32:58;;;;;;;3.17;2.08;;;;;;;;;;4997867;28;20102;-79
2023/01/11 04:35:24;;;;;;;2.90;1.83;;;;;;;;;;5002373;28;20037;-80
2023/01/11 04:37:53;;;;;;;2.80;1.83;;;;;;;;;;5002524;28;20462;-79
2023/01/11 04:40:19;;;;;;;5.05;2.13;;;;;;;;;;5001340;28;20393;-80
2023/01/11 04:42:45;;;;;;;3.53;2.17;;;;;;;;;;5005531;28;20030;-79
2023/01/11 04:45:10;;;;;;;2.88;2.00;;;;;;;;;;4997751;28;20029;-79
2023/01/11 04:47:36;;;;;;;3.47;2.15;;;;;;;;;;5007970;28;20018;-80
2023/01/11 04:50:01;;;;;;;2.97;2.00;;;;;;;;;;5004771;28;20056;-80
2023/01/11 04:52:26;;;;;;;3.00;2.00;;;;;;;;;;5008479;28;20034;-80
2023/01/11 04:54:52;;;;;;;2.90;1.70;;;;;;;;;;5005613;28;20025;-79
2023/01/11 04:57:18;;;;;;;2.90;1.90;;;;;;;;;;5003315;28;20040;-79
2023/01/11 04:59:46;;;;;;;2.88;1.75;;;;;;;;;;5001716;28;20033;-79
2023/01/11 05:02:13;;;;;;;2.85;1.92;;;;;;;;;;4996875;28;20699;-80
2023/01/11 05:04:39;;;;;;;2.80;1.80;;;;;;;;;;5001617;28;20030;-80
2023/01/11 05:07:06;;;;;;;3.50;2.03;;;;;;;;;;5001820;28;20072;-79
2023/01/11 05:09:31;;;;;;;4.32;2.20;;;;;;;;;;5000401;28;20077;-79
2023/01/11 05:11:57;;;;;;;3.17;2.03;;;;;;;;;;5000427;28;20029;-79
2023/01/11 05:14:22;;;;;;;3.45;2.20;;;;;;;;;;4997065;28;20053;-79
2023/01/11 05:16:47;;;;;;;4.30;2.00;;;;;;;;;;5004736;28;20036;-79
2023/01/11 05:19:13;;;;;;;3.30;1.92;;;;;;;;;;5000356;28;20489;-79
2023/01/11 05:21:40;;;;;;;3.80;2.33;;;;;;;;;;4998790;28;20048;-79
2023/01/11 05:24:11;;;;;;;3.78;2.28;;;;;;;;;;4999519;28;20053;-78
2023/01/11 05:26:38;;;;;;;3.88;2.40;;;;;;;;;;5013610;28;20136;-79
2023/01/11 05:29:06;;;;;;;6.00;2.40;;;;;;;;;;5002694;28;20395;-79
2023/01/11 05:31:33;;;;;;;3.95;2.45;;;;;;;;;;5005512;28;20108;-79
2023/01/11 05:33:59;;;;;;;3.95;2.35;;;;;;;;;;4999350;28;20604;-80
2023/01/11 05:36:26;;;;;;;4.00;2.70;;;;;;;;;;5007096;28;20042;-79
2023/01/11 05:38:52;;;;;;;5.55;2.50;;;;;;;;;;4999875;28;20022;-80
2023/01/11 05:41:20;;;;;;;3.75;2.50;;;;;;;;;;4998602;28;20057;-78
2023/01/11 05:46:33;;;;;;;4.80;2.40;;;;;;;;;;5003774;28;20051;-79
2023/01/11 05:49:01;;;;;;;6.78;2.97;;;;;;;;;;5002001;28;20088;-80
2023/01/11 05:51:29;;;;;;;9.05;2.38;;;;;;;;;;5004229;28;20118;-79
2023/01/11 05:53:59;;;;;;;9.45;2.63;;;;;;;;;;4999549;28;20587;-79
2023/01/11 05:56:25;;;;;;;7.40;2.05;;;;;;;;;;4995300;28;20113;-79
2023/01/11 05:58:50;;;;;;;9.85;1.88;;;;;;;;;;4998720;28;20025;-79
2023/01/11 06:01:18;;;;;;;7.50;1.77;;;;;;;;;;4993673;28;20038;-79
2023/01/11 06:03:44;;;;;;;3.35;1.52;;;;;;;;;;4992169;28;20022;-79
2023/01/11 06:06:10;;;;;;;10.85;1.95;;;;;;;;;;5002079;28;20026;-80
2023/01/11 06:08:36;;;;;;;8.65;1.92;;;;;;;;;;4996797;28;20501;-79
2023/01/11 06:11:01;;;;;;;7.40;1.70;;;;;;;;;;4990185;28;20042;-78
2023/01/11 06:13:26;;;;;;;7.20;1.60;;;;;;;;;;4998379;28;20030;-79
2023/01/11 06:15:59;;;;;;;6.00;1.45;;;;;;;;;;4993288;28;20037;-79
2023/01/11 06:18:26;;;;;;;5.80;1.17;;;;;;;;;;5016190;28;20362;-80
2023/01/11 06:20:53;;;;;;;12.38;2.35;;;;;;;;;;5010047;28;20112;-80
2023/01/11 06:23:20;;;;;;;6.28;1.13;;;;;;;;;;4997785;28;20041;-80
2023/01/11 06:25:46;;;;;;;10.35;1.45;;;;;;;;;;5004905;28;20497;-79
2023/01/11 06:28:11;;;;;;;10.93;2.10;;;;;;;;;;5006270;28;20029;-79
2023/01/11 06:30:37;;;;;;;11.18;1.52;;;;;;;;;;5007277;28;20087;-80
2023/01/11 06:33:06;;;;;;;9.20;1.48;;;;;;;;;;5008148;28;20034;-79
2023/01/11 06:35:33;;;;;;;11.35;1.40;;;;;;;;;;5005325;28;20022;-80
2023/01/11 06:37:58;;;;;;;12.57;1.48;;;;;;;;;;5011393;28;20034;-79
2023/01/11 06:40:24;;;;;;;7.35;1.25;;;;;;;;;;5012558;28;20021;-79
2023/01/11 06:42:49;;;;;;;12.15;1.75;;;;;;;;;;4998807;28;20029;-79
2023/01/11 06:45:15;;;;;;;8.38;1.40;;;;;;;;;;5001324;28;20060;-79
2023/01/11 06:47:40;;;;;;;7.18;1.13;;;;;;;;;;4996401;28;20054;-79
2023/01/11 06:50:06;;;;;;;7.05;1.25;;;;;;;;;;4988344;28;20026;-79
2023/01/11 06:52:31;;;;;;;8.23;1.65;;;;;;;;;;4995454;28;20390;-79
2023/01/11 06:54:57;;;;;;;13.27;1.90;;;;;;;;;;4999949;28;20044;-79
2023/01/11 06:57:22;;;;;;;9.52;1.50;;;;;;;;;;5001564;28;20030;-79
2023/01/11 06:59:47;;;;;;;4.28;1.23;;;;;;;;;;4995587;28;20026;-78
2023/01/11 07:02:13;;;;;;;4.55;0.80;;;;;;;;;;4999425;28;20021;-79
2023/01/11 07:04:38;;;;;;;6.22;1.20;;;;;;;;;;5001926;28;20045;-79
2023/01/11 07:07:04;;;;;;;8.63;1.95;;;;;;;;;;5001647;28;20033;-79
2023/01/11 07:09:29;;;;;;;11.02;1.52;;;;;;;;;;4996131;28;20034;-79
2023/01/11 07:11:54;;;;;;;7.82;1.55;;;;;;;;;;4998863;28;20026;-79
2023/01/11 07:14:20;;;;;;;10.18;1.30;;;;;;;;;;4999950;28;20474;-79
2023/01/11 07:16:46;;;;;;;7.43;1.10;;;;;;;;;;4997792;28;20037;-79
2023/01/11 07:19:11;;;;;;;9.15;1.27;;;;;;;;;;4994577;28;20044;-79
2023/01/11 07:21:37;;;;;;;7.45;1.25;;;;;;;;;;4997518;28;20041;-79
2023/01/11 07:24:02;;;;;;;8.35;1.13;;;;;;;;;;5000207;28;20470;-79
2023/01/11 07:26:28;;;;;;;7.43;1.27;;;;;;;;;;5003378;28;20038;-79
2023/01/11 07:28:54;;;;;;;8.00;1.67;;;;;;;;;;5002712;28;20030;-79
2023/01/11 07:31:19;;;;;;;7.88;1.52;;;;;;;;;;4999871;28;20028;-79
2023/01/11 07:33:45;;;;;;;10.85;1.55;;;;;;;;;;5002442;28;20568;-79
2023/01/11 07:36:10;;;;;;;11.25;1.20;;;;;;;;;;4998021;28;20528;-79
2023/01/11 07:38:35;;;;;;;13.18;2.78;;;;;;;;;;4996274;28;20025;-79
2023/01/11 07:43:10;;;;;;;8.95;1.50;;;;;;;;;;5002989;28;20062;-79
2023/01/11 07:43:46;;;;;;;9.38;1.35;;;;;;;;;;5009024;28;20045;-79
2023/01/11 07:46:11;;;;;;;10.93;1.98;;;;;;;;;;5010851;28;20417;-79
2023/01/11 07:48:37;;;;;;;8.65;1.92;;;;;;;;;;5011292;28;20088;-80
2023/01/11 07:51:02;;;;;;;5.03;1.30;;;;;;;;;;5007913;28;20116;-79
2023/01/11 07:53:27;;;;;;;12.10;2.22;;;;;;;;;;5002903;28;20087;-79
2023/01/11 07:55:56;;;;;;;9.45;1.35;;;;;;;;;;5006392;28;20037;-80
2023/01/11 07:58:22;;;;;;;9.93;1.60;;;;;;;;;;5012583;28;20108;-80
2023/01/11 08:00:47;;;;;;;8.35;1.17;;;;;;;;;;5011205;28;20212;-80
2023/01/11 08:03:13;;;;;;;10.02;1.50;;;;;;;;;;5009363;28;20497;-79
2023/01/11 08:05:39;;;;;;;5.05;1.35;;;;;;;;;;5011318;28;20506;-80
2023/01/11 08:08:05;;;;;;;7.70;0.90;;;;;;;;;;5005692;28;20026;-80
2023/01/11 08:10:30;;;;;;;11.13;1.50;;;;;;;;;;5011479;28;20425;-80
2023/01/11 08:15:42;;;;;;;13.40;1.42;;;;;;;;;;5012159;28;20516;-80
2023/01/11 08:18:10;;;;;;;8.52;1.33;;;;;;;;;;5012971;28;20401;-80
2023/01/11 08:20:35;;;;;;;8.93;1.77;;;;;;;;;;5007694;28;20094;-80
2023/01/11 08:23:05;;;;;;;7.68;1.30;;;;;;;;;;5009561;28;20033;-80
2023/01/11 08:25:32;;;;;;;5.57;1.15;;;;;;;;;;5008937;28;20068;-79
2023/01/11 08:28:03;;;;;;;10.52;1.52;;;;;;;;;;5005727;28;20026;-79
2023/01/11 08:30:29;;;;;;;8.55;1.33;;;;;;;;;;5005833;28;20120;-79
2023/01/11 08:32:56;;;;;;;10.93;1.33;;;;;;;;;;5008230;28;20120;-79
2023/01/11 08:35:22;;;;;;;8.32;1.33;;;;;;;;;;5011024;28;20547;-80
2023/01/11 08:37:47;;;;;;;5.97;1.30;;;;;;;;;;5006738;28;20383;-79
2023/01/11 08:40:12;;;;;;;7.57;1.52;;;;;;;;;;5001070;28;20030;-79
2023/01/11 08:42:38;;;;;;;6.05;1.00;;;;;;;;;;5006630;28;20030;-80
2023/01/11 08:45:04;;;;;;;9.85;1.55;;;;;;;;;;5006474;28;20045;-80
2023/01/11 08:47:29;;;;;;;6.53;1.25;;;;;;;;;;5008871;28;20041;-80
2023/01/11 08:49:54;;;;;;;6.47;1.23;;;;;;;;;;5008639;28;20394;-80
2023/01/11 08:52:20;;;;;;;9.07;1.95;;;;;;;;;;5010987;28;20033;-80
2023/01/11 08:54:45;;;;;;;10.48;1.38;;;;;;;;;;5012326;28;20057;-80
2023/01/11 08:57:11;;;;;;;8.05;1.42;;;;;;;;;;5011627;28;20104;-80
2023/01/11 08:59:36;;;;;;;7.90;1.15;;;;;;;;;;5009164;28;20036;-80
2023/01/11 09:02:03;;;;;;;7.18;1.33;;;;;;;;;;5004111;28;20033;-79
2023/01/11 09:04:29;;;;;;;9.00;1.70;;;;;;;;;;5002977;28;20104;-80
2023/01/11 09:06:54;;;;;;;7.97;1.52;;;;;;;;;;5008956;28;20061;-80
2023/01/11 09:09:20;;;;;;;6.55;1.13;;;;;;;;;;5007531;28;20401;-79
2023/01/11 09:11:55;;;;;;;8.15;1.52;;;;;;;;;;5007285;28;20029;-80
2023/01/11 09:14:23;;;;;;;10.38;1.70;;;;;;;;;;5001534;28;20041;-80
2023/01/11 09:16:49;;;;;;;9.70;1.40;;;;;;;;;;5003021;28;20478;-79
2023/01/11 09:19:15;;;;;;;9.65;1.80;;;;;;;;;;4999859;28;20018;-80
2023/01/11 09:21:40;;;;;;;8.57;1.63;;;;;;;;;;5006642;28;20682;-80
2023/01/11 09:24:06;;;;;;;11.80;1.88;;;;;;;;;;5002603;28;20036;-80
2023/01/11 09:26:31;;;;;;;6.57;1.40;;;;;;;;;;5004032;28;20022;-80
2023/01/11 09:28:57;;;;;;;8.35;1.60;;;;;;;;;;5004691;28;20450;-80
2023/01/11 09:31:22;;;;;;;11.07;1.73;;;;;;;;;;5004470;28;20042;-80
2023/01/11 09:33:48;;;;;;;9.13;1.33;;;;;;;;;;5006228;28;20076;-80
2023/01/11 09:36:13;;;;;;;6.72;1.13;;;;;;;;;;5000959;28;20410;-80
2023/01/11 09:38:40;;;;;;;11.25;1.50;;;;;;;;;;4999815;28;20136;-79
2023/01/11 09:41:22;;;;;;;6.80;1.27;;;;;;;;;;4999298;28;20475;-80
2023/01/11 09:44:01;;;;;;;7.82;1.25;;;;;;;;;;4995357;28;20402;-78
2023/01/11 09:46:28;;;;;;;11.07;2.17;;;;;;;;;;5000281;28;20034;-80
2023/01/11 09:48:59;;;;;;;8.20;1.48;;;;;;;;;;5000685;28;20065;-79
2023/01/11 09:51:32;;;;;;;8.75;1.45;;;;;;;;;;5000766;28;20072;-79
2023/01/11 09:54:00;;;;;;;10.30;1.30;;;;;;;;;;5016113;28;20116;-79
2023/01/11 09:56:35;;;;;;;10.00;1.52;;;;;;;;;;5005901;28;20029;-80
2023/01/11 09:59:13;;;;;;;8.63;1.45;;;;;;;;;;5020001;28;20113;-80
2023/01/11 10:01:46;;;;;;;7.63;1.85;;;;;;;;;;5005456;28;20029;-80
2023/01/11 10:04:36;;;;;;;10.55;1.52;;;;;;;;;;5010019;28;20022;-80
2023/01/11 10:07:23;;;;;;;6.80;1.38;;;;;;;;;;5009082;28;20469;-80
2023/01/11 10:10:25;;;;;;;9.05;1.73;;;;;;;;;;5013007;28;20087;-80
2023/01/11 10:13:05;;;;;;;10.40;1.80;;;;;;;;;;5005975;28;20385;-80
2023/01/11 10:15:41;;;;;;;7.93;1.50;;;;;;;;;;5001398;28;20030;-79
2023/01/11 10:18:16;;;;;;;12.48;1.77;;;;;;;;;;5023045;28;20478;-80
2023/01/11 10:20:49;;;;;;;10.07;1.90;;;;;;;;;;5006860;28;20390;-79
2023/01/11 10:23:28;;;;;;;10.95;1.73;;;;;;;;;;5002492;28;20026;-80
2023/01/11 10:25:57;;;;;;;6.88;1.58;;;;;;;;;;5006119;28;20045;-79
2023/01/11 10:28:44;;;;;;;6.63;0.90;;;;;;;;;;5015314;28;20435;-80
2023/01/11 10:31:47;;;;;;;12.55;2.38;;;;;;;;;;5009363;28;20490;-80
2023/01/11 10:37:33;;;;;;;9.55;1.27;;;;;;;;;;5010926;28;20364;-80
2023/01/11 10:43:02;;;;;;;7.70;1.30;;;;;;;;;;5003774;28;20389;-80
2023/01/11 10:45:53;;;;;;;12.57;2.10;;;;;;;;;;5008480;28;20043;-80
2023/01/11 10:48:42;;;;;;;9.85;1.38;;;;;;;;;;5021373;28;20037;-80
2023/01/11 10:51:13;;;;;;;6.20;1.17;;;;;;;;;;5014886;28;20033;-80
2023/01/11 10:53:56;;;;;;;13.70;1.77;;;;;;;;;;5005308;28;20087;-80
2023/01/11 10:56:40;;;;;;;6.00;1.63;;;;;;;;;;5006944;28;20044;-80
2023/01/11 10:59:38;;;;;;;6.47;1.15;;;;;;;;;;5009257;28;20021;-80
2023/01/11 11:02:29;;;;;;;9.45;1.42;;;;;;;;;;4963401;28;20037;-80
2023/01/11 11:05:17;;;;;;;7.65;1.63;;;;;;;;;;5004790;28;20038;-80
2023/01/11 11:08:13;;;;;;;10.45;1.50;;;;;;;;;;5012600;28;20029;-79
2023/01/11 11:10:51;;;;;;;11.23;1.70;;;;;;;;;;4998151;28;20041;-80
2023/01/11 11:13:47;;;;;;;8.65;1.63;;;;;;;;;;5011036;28;20026;-80
2023/01/11 11:16:27;;;;;;;10.18;1.95;;;;;;;;;;5008965;28;20474;-80
2023/01/11 11:18:57;;;;;;;6.53;1.38;;;;;;;;;;5009224;28;21276;-80
2023/01/11 11:21:37;;;;;;;15.15;1.92;;;;;;;;;;5009089;28;20769;-79
2023/01/11 11:24:13;;;;;;;13.10;1.48;;;;;;;;;;5013560;28;20072;-80
2023/01/11 11:26:43;;;;;;;10.77;1.38;;;;;;;;;;5007134;28;20029;-80
2023/01/11 11:29:18;;;;;;;12.77;1.73;;;;;;;;;;5011516;28;20045;-80
2023/01/11 11:31:45;;;;;;;9.68;1.65;;;;;;;;;;5020435;28;20030;-80
2023/01/11 11:34:18;;;;;;;13.63;1.98;;;;;;;;;;5014189;28;20061;-80
2023/01/11 11:36:49;;;;;;;11.30;1.63;;;;;;;;;;5010949;28;20516;-80
2023/01/11 11:39:19;;;;;;;9.02;1.73;;;;;;;;;;5010812;28;20038;-79
2023/01/11 11:42:05;;;;;;;8.05;1.40;;;;;;;;;;5002179;28;20034;-80
2023/01/11 11:44:30;;;;;;;11.10;2.08;;;;;;;;;;5010292;28;20065;-80
2023/01/11 11:46:58;;;;;;;9.35;1.90;;;;;;;;;;5012085;28;20049;-80
2023/01/11 11:49:24;;;;;;;10.80;1.83;;;;;;;;;;5011751;28;20026;-80
2023/01/11 11:51:51;;;;;;;10.73;1.80;;;;;;;;;;5011905;28;20032;-80
2023/01/11 11:54:19;;;;;;;10.05;1.55;;;;;;;;;;5015253;28;20367;-80
2023/01/11 11:56:45;;;;;;;9.07;1.65;;;;;;;;;;5008218;28;20595;-80
2023/01/11 11:59:16;;;;;;;7.18;1.05;;;;;;;;;;5005267;28;20037;-80
2023/01/11 12:01:45;;;;;;;9.65;1.70;;;;;;;;;;5007163;28;20129;-80
2023/01/11 12:04:29;;;;;;;10.88;1.45;;;;;;;;;;5010373;28;20544;-80
2023/01/11 12:07:14;;;;;;;10.43;1.73;;;;;;;;;;5008929;28;20030;-80
2023/01/11 12:09:45;;;;;;;11.73;1.50;;;;;;;;;;5009470;28;20033;-80
2023/01/11 12:12:19;;;;;;;8.00;1.25;;;;;;;;;;5010962;28;20209;-80
2023/01/11 12:15:07;;;;;;;11.52;1.83;;;;;;;;;;5011021;28;20033;-80
2023/01/11 12:17:32;;;;;;;8.50;1.38;;;;;;;;;;5014811;28;20018;-80
2023/01/11 12:19:58;;;;;;;8.10;1.63;;;;;;;;;;5013990;28;20037;-80
2023/01/11 12:22:26;;;;;;;8.85;1.58;;;;;;;;;;5021989;28;20026;-80
2023/01/11 12:25:27;;;;;;;9.75;1.75;;;;;;;;;;5012427;28;20398;-80
2023/01/11 12:28:30;;;;;;;12.00;1.52;;;;;;;;;;5012058;28;20475;-80
2023/01/11 12:31:13;;;;;;;6.30;1.50;;;;;;;;;;5010185;28;20037;-80
2023/01/11 12:34:18;;;;;;;8.93;1.70;;;;;;;;;;5018208;28;20397;-80
2023/01/11 12:37:08;;;;;;;9.07;1.85;;;;;;;;;;4997975;28;20164;-80
2023/01/11 12:39:52;;;;;;;9.48;2.13;;;;;;;;;;5002017;28;20029;-80
2023/01/11 12:42:52;;;;;;;7.28;1.65;;;;;;;;;;5005053;28;20032;-80
2023/01/11 12:45:43;;;;;;;9.57;2.35;;;;;;;;;;5018272;28;20532;-81
2023/01/11 12:48:28;;;;;;;12.43;2.45;;;;;;;;;;5000138;28;20040;-79
2023/01/11 12:51:15;;;;;;;9.90;1.98;;;;;;;;;;5006450;28;20526;-80
2023/01/11 12:54:14;;;;;;;9.25;1.95;;;;;;;;;;5002350;28;20080;-81
2023/01/11 12:56:59;;;;;;;8.13;2.03;;;;;;;;;;5009956;28;20398;-80
2023/01/11 12:59:55;;;;;;;9.32;2.03;;;;;;;;;;5009972;28;20045;-79
2023/01/11 13:02:37;;;;;;;12.88;2.00;;;;;;;;;;5001611;28;20470;-80
2023/01/11 13:05:22;;;;;;;11.13;1.83;;;;;;;;;;5002113;28;20034;-81
2023/01/11 13:08:04;;;;;;;12.02;1.92;;;;;;;;;;5001394;28;20693;-80
2023/01/11 13:10:36;;;;;;;10.73;1.80;;;;;;;;;;5008900;28;20084;-80
2023/01/11 13:13:21;;;;;;;10.70;2.15;;;;;;;;;;5008159;28;20116;-79
2023/01/11 13:15:59;;;;;;;7.75;1.75;;;;;;;;;;5021764;28;20088;-77
2023/01/11 13:18:52;;;;;;;8.68;1.50;;;;;;;;;;5006465;28;20030;-77
2023/01/11 13:21:27;;;;;;;10.45;1.55;;;;;;;;;;4992313;28;20413;-76
2023/01/11 13:23:57;;;;;;;7.70;1.55;;;;;;;;;;5009138;28;20078;-76
2023/01/11 13:26:34;;;;;;;8.55;1.73;;;;;;;;;;5011856;28;20113;-76
2023/01/11 13:29:19;;;;;;;10.55;1.80;;;;;;;;;;5007453;28;20061;-76
2023/01/11 13:31:47;;;;;;;12.00;1.30;;;;;;;;;;5008112;28;20061;-76
2023/01/11 13:34:15;;;;;;;9.85;1.60;;;;;;;;;;5009434;28;20118;-76
2023/01/11 13:36:50;;;;;;;8.50;1.98;;;;;;;;;;5010522;28;20053;-76
2023/01/11 13:39:27;;;;;;;10.38;1.88;;;;;;;;;;5009233;28;20030;-76
2023/01/11 13:41:56;;;;;;;8.38;1.60;;;;;;;;;;5007874;28;20036;-76
2023/01/11 13:44:34;;;;;;;10.75;1.63;;;;;;;;;;5010908;28;20030;-76
2023/01/11 13:47:02;;;;;;;9.88;2.10;;;;;;;;;;5008975;28;20029;-76
2023/01/11 13:49:36;;;;;;;6.10;1.30;;;;;;;;;;5007539;28;20026;-76
2023/01/11 13:52:10;;;;;;;8.43;1.50;;;;;;;;;;5008622;28;20029;-76
2023/01/11 13:54:52;;;;;;;8.85;1.40;;;;;;;;;;5005260;28;20037;-76
2023/01/11 13:57:42;;;;;;;9.65;1.90;;;;;;;;;;5010945;28;20411;-76
2023/01/11 14:00:34;;;;;;;9.05;1.45;;;;;;;;;;5007935;28;20032;-76
2023/01/11 14:03:28;;;;;;;8.50;1.80;;;;;;;;;;5007844;28;20394;-76
2023/01/11 14:06:15;;;;;;;12.10;1.92;;;;;;;;;;5003275;28;20402;-76
2023/01/11 14:08:59;;;;;;;6.65;1.83;;;;;;;;;;5004011;28;20033;-76
2023/01/11 14:11:27;;;;;;;11.35;1.90;;;;;;;;;;5007455;28;20370;-76
2023/01/11 14:14:12;;;;;;;11.65;2.13;;;;;;;;;;5010083;28;20033;-76
2023/01/11 14:16:51;;;;;;;8.85;1.67;;;;;;;;;;5020798;28;20121;-76
2023/01/11 14:19:53;;;;;;;8.95;1.77;;;;;;;;;;5009976;28;20426;-76
2023/01/11 14:22:37;;;;;;;6.93;1.35;;;;;;;;;;4986223;28;20052;-76
2023/01/11 14:25:56;;;;;;;8.38;1.77;;;;;;;;;;5005546;28;20030;-76
2023/01/11 14:28:38;;;;;;;11.38;1.83;;;;;;;;;;4948166;28;20062;-77
2023/01/11 14:31:30;;;;;;;9.18;2.13;;;;;;;;;;5001445;28;20048;-76
2023/01/11 14:34:38;;;;;;;7.10;1.60;;;;;;;;;;5000592;28;20474;-76
2023/01/11 14:37:30;;;;;;;7.30;1.70;;;;;;;;;;5004456;28;20112;-76
2023/01/11 14:39:58;;;;;;;10.40;1.85;;;;;;;;;;5001478;28;20759;-76
2023/01/11 14:42:42;;;;;;;15.02;2.85;;;;;;;;;;5005807;28;20034;-75
2023/01/11 14:45:13;;;;;;;11.23;2.28;;;;;;;;;;5003548;28;20033;-75
2023/01/11 14:48:02;;;;;;;9.48;1.95;;;;;;;;;;4998607;28;20026;-75
2023/01/11 14:50:46;;;;;;;12.23;2.38;;;;;;;;;;5015309;28;21001;-76
2023/01/11 14:53:20;;;;;;;10.00;1.77;;;;;;;;;;5000031;28;20033;-76
2023/01/11 14:55:46;;;;;;;9.70;2.05;;;;;;;;;;4997735;28;20120;-76
2023/01/11 14:58:23;;;;;;;11.57;2.65;;;;;;;;;;5000203;28;20036;-77
2023/01/11 15:01:05;;;;;;;8.30;1.80;;;;;;;;;;4998709;28;20077;-76
2023/01/11 15:03:41;;;;;;;6.50;1.77;;;;;;;;;;5002195;28;20026;-76
2023/01/11 15:06:19;;;;;;;7.85;1.80;;;;;;;;;;4999831;28;20036;-76
2023/01/11 15:08:47;;;;;;;10.45;2.50;;;;;;;;;;5016067;28;20030;-75
2023/01/11 15:11:28;;;;;;;8.98;2.30;;;;;;;;;;5000654;28;20519;-76
2023/01/11 15:14:18;;;;;;;7.38;1.50;;;;;;;;;;4998598;28;20371;-76
2023/01/11 15:19:37;;;;;;;10.32;1.60;;;;;;;;;;5003503;28;20036;-76
2023/01/11 15:22:04;;;;;;;9.13;1.85;;;;;;;;;;5026964;28;20449;-75
2023/01/11 15:24:42;;;;;;;5.95;1.08;;;;;;;;;;5005352;28;20034;-75
2023/01/11 15:27:23;;;;;;;10.25;1.45;;;;;;;;;;5002059;28;20127;-76
2023/01/11 15:29:54;;;;;;;6.35;1.40;;;;;;;;;;5007787;28;20490;-75
2023/01/11 15:32:31;;;;;;;8.80;1.23;;;;;;;;;;5003977;28;20149;-76
2023/01/11 15:35:21;;;;;;;8.52;1.13;;;;;;;;;;5007049;28;20104;-75
2023/01/11 15:37:57;;;;;;;6.38;1.35;;;;;;;;;;5011064;28;20025;-76
2023/01/11 15:40:30;;;;;;;4.07;1.02;;;;;;;;;;5012427;28;20037;-76
2023/01/11 15:43:24;;;;;;;7.93;1.35;;;;;;;;;;5007168;28;20497;-75